Time;durP1;ratioP1;P1;durP2;ratioP2;P2;SDS_P1;SDS_P2;PMS_P1;PMS_P2;Temp;Humidity;BMP_temperature;BMP_pressure;BME280_temperature;BME280_humidity;BME280_pressure;Samples;Min_cycle;Max_cycle;Signal;HPM_P1;HPM_P2
2022/11/25 00:01:21;;;;;;;43.77;39.27;;;5.10;99.90;;;;;;5028225;28;20198;-56
2022/11/25 00:03:47;;;;;;;44.00;39.42;;;5.10;99.90;;;;;;5028532;28;20194;-54
2022/11/25 00:06:34;;;;;;;43.00;38.50;;;5.00;99.90;;;;;;5028449;28;20231;-53
2022/11/25 00:09:09;;;;;;;42.53;38.28;;;5.00;99.90;;;;;;5026220;28;20192;-53
2022/11/25 00:11:37;;;;;;;43.25;38.80;;;5.00;99.90;;;;;;5029437;28;20174;-53
2022/11/25 00:14:03;;;;;;;41.80;37.60;;;5.00;99.90;;;;;;5024233;28;20634;-53
2022/11/25 00:16:29;;;;;;;43.17;38.72;;;5.10;99.90;;;;;;5026573;28;20631;-55
2022/11/25 00:18:57;;;;;;;44.30;40.00;;;5.10;99.90;;;;;;5024058;28;20249;-55
2022/11/25 00:21:26;;;;;;;45.40;40.72;;;5.10;99.90;;;;;;5026541;28;20542;-56
2022/11/25 00:23:53;;;;;;;43.00;38.60;;;5.20;99.90;;;;;;5027128;28;20179;-53
2022/11/25 00:26:18;;;;;;;43.85;39.60;;;5.20;99.90;;;;;;5026517;28;20477;-54
2022/11/25 00:28:45;;;;;;;41.63;37.63;;;5.20;99.90;;;;;;5026515;28;20716;-50
2022/11/25 00:31:17;;;;;;;40.95;37.05;;;5.30;99.90;;;;;;5027041;28;20443;-53
2022/11/25 00:33:44;;;;;;;42.60;38.20;;;5.30;99.90;;;;;;5025370;28;20183;-54
2022/11/25 00:36:21;;;;;;;42.92;38.50;;;5.40;99.90;;;;;;5029029;28;20550;-56
2022/11/25 00:38:55;;;;;;;42.10;37.90;;;5.50;99.90;;;;;;5023294;28;20557;-53
2022/11/25 00:46:49;;;;;;;41.07;36.97;;;5.50;99.90;;;;;;5003215;28;20209;-55
2022/11/25 00:49:14;;;;;;;40.63;36.67;;;5.60;99.90;;;;;;5007540;28;20424;-56
2022/11/25 00:51:40;;;;;;;39.40;35.67;;;5.60;99.90;;;;;;5014467;28;20254;-55
2022/11/25 00:54:06;;;;;;;41.97;37.37;;;5.60;99.90;;;;;;5025381;28;20235;-53
2022/11/25 00:56:31;;;;;;;40.90;36.80;;;5.60;99.90;;;;;;5028115;28;20192;-52
2022/11/25 00:58:57;;;;;;;37.53;34.23;;;5.60;99.90;;;;;;5025179;28;20176;-56
2022/11/25 01:01:23;;;;;;;38.83;35.17;;;5.60;99.90;;;;;;5027773;28;20264;-53
2022/11/25 01:03:50;;;;;;;38.90;34.87;;;5.60;99.90;;;;;;5026085;28;20198;-54
2022/11/25 01:06:16;;;;;;;37.53;33.80;;;5.60;99.90;;;;;;5028299;28;20971;-53
2022/11/25 01:08:41;;;;;;;38.93;34.90;;;5.60;99.90;;;;;;5025966;28;20194;-55
2022/11/25 01:11:11;;;;;;;39.50;34.93;;;5.60;99.90;;;;;;5025803;28;20306;-55
2022/11/25 01:13:36;;;;;;;35.85;32.55;;;5.60;99.90;;;;;;5027845;28;20199;-54
2022/11/25 01:16:03;;;;;;;37.50;33.87;;;5.60;99.90;;;;;;5024933;28;20192;-55
2022/11/25 01:18:30;;;;;;;36.78;33.17;;;5.60;99.90;;;;;;5026116;28;20583;-57
2022/11/25 01:21:14;;;;;;;36.65;33.35;;;5.60;99.90;;;;;;5026028;28;20180;-55
2022/11/25 01:23:40;;;;;;;40.35;34.85;;;5.60;99.90;;;;;;5026291;28;20204;-52
2022/11/25 01:26:10;;;;;;;37.65;33.78;;;5.50;99.90;;;;;;5027293;28;20187;-52
2022/11/25 01:28:36;;;;;;;38.45;34.45;;;5.30;99.90;;;;;;5021432;28;20187;-53
2022/11/25 01:31:11;;;;;;;39.97;35.97;;;5.20;99.90;;;;;;5026798;28;20188;-54
2022/11/25 01:33:37;;;;;;;39.20;35.25;;;5.10;99.90;;;;;;5026798;28;20447;-56
2022/11/25 01:36:07;;;;;;;40.22;36.10;;;5.00;99.90;;;;;;5027715;28;20206;-53
2022/11/25 01:38:33;;;;;;;39.28;35.17;;;4.90;99.90;;;;;;5022608;28;20573;-53
2022/11/25 01:40:59;;;;;;;40.08;36.28;;;4.80;99.90;;;;;;5025084;28;20312;-53
2022/11/25 01:43:27;;;;;;;39.63;35.42;;;4.80;99.90;;;;;;5027677;28;20789;-52
2022/11/25 01:45:56;;;;;;;40.47;36.47;;;4.80;99.90;;;;;;5028965;28;20808;-55
2022/11/25 01:48:31;;;;;;;41.00;36.70;;;4.80;99.90;;;;;;5029491;28;20218;-51
2022/11/25 01:50:58;;;;;;;40.55;36.25;;;4.70;99.90;;;;;;5030163;28;20607;-55
2022/11/25 01:53:24;;;;;;;39.15;35.05;;;4.70;99.90;;;;;;5031842;28;20699;-53
2022/11/25 01:55:55;;;;;;;38.60;35.00;;;4.70;99.90;;;;;;5030224;28;20191;-54
2022/11/25 01:58:28;;;;;;;40.58;36.33;;;4.70;99.90;;;;;;5029192;28;20337;-50
2022/11/25 02:00:54;;;;;;;40.08;36.25;;;4.70;99.90;;;;;;5028892;28;20637;-51
2022/11/25 02:03:33;;;;;;;39.87;35.67;;;4.60;99.90;;;;;;5031530;28;20221;-50
2022/11/25 02:06:09;;;;;;;40.47;36.28;;;4.70;99.90;;;;;;5030309;28;20230;-50
2022/11/25 02:08:34;;;;;;;41.10;36.92;;;4.70;99.90;;;;;;5028277;28;20309;-47
2022/11/25 02:11:03;;;;;;;40.57;35.10;;;4.70;99.90;;;;;;5028056;28;20269;-49
2022/11/25 02:13:30;;;;;;;40.50;36.60;;;4.70;99.90;;;;;;5029667;28;20270;-49
2022/11/25 02:15:56;;;;;;;38.63;34.78;;;4.80;99.90;;;;;;5031949;28;20195;-48
2022/11/25 02:18:22;;;;;;;39.97;36.07;;;4.80;99.90;;;;;;5026828;28;20203;-50
2022/11/25 02:20:47;;;;;;;41.37;37.40;;;4.90;99.90;;;;;;5030618;28;20184;-48
2022/11/25 02:23:31;;;;;;;40.47;36.37;;;4.90;99.90;;;;;;5030116;28;20175;-48
2022/11/25 02:25:57;;;;;;;40.00;36.10;;;4.90;99.90;;;;;;5024360;28;20198;-49
2022/11/25 02:28:25;;;;;;;39.93;35.23;;;5.00;99.90;;;;;;5026986;28;20189;-50
2022/11/25 02:30:51;;;;;;;39.83;36.03;;;5.00;99.90;;;;;;5029389;28;20187;-48
2022/11/25 02:33:18;;;;;;;36.03;32.60;;;5.00;99.90;;;;;;5029720;28;20583;-52
2022/11/25 02:35:44;;;;;;;39.13;34.95;;;5.00;99.90;;;;;;5031218;28;20433;-50
2022/11/25 02:38:12;;;;;;;37.37;33.87;;;5.00;99.90;;;;;;5026478;28;20287;-49
2022/11/25 02:41:04;;;;;;;36.95;33.20;;;5.00;99.90;;;;;;5031355;28;20191;-49
2022/11/25 02:43:30;;;;;;;39.50;35.20;;;4.90;99.90;;;;;;5029189;28;20216;-49
2022/11/25 02:46:05;;;;;;;38.27;34.67;;;5.00;99.90;;;;;;5030116;28;20183;-48
2022/11/25 02:48:35;;;;;;;38.60;34.78;;;5.00;99.90;;;;;;5027379;28;20444;-46
2022/11/25 02:51:01;;;;;;;37.17;33.42;;;5.00;99.90;;;;;;5029411;28;20207;-53
2022/11/25 02:53:27;;;;;;;38.40;34.60;;;5.00;99.90;;;;;;5027399;28;20265;-47
2022/11/25 02:55:52;;;;;;;39.70;35.80;;;5.00;99.90;;;;;;5028467;28;20171;-47
2022/11/25 02:58:18;;;;;;;37.87;34.23;;;5.00;99.90;;;;;;5027755;28;20202;-52
2022/11/25 03:00:44;;;;;;;38.78;35.08;;;5.00;99.90;;;;;;5029148;28;20190;-53
2022/11/25 03:03:10;;;;;;;38.70;35.10;;;5.10;99.90;;;;;;5030077;28;20190;-51
2022/11/25 03:05:36;;;;;;;37.58;33.97;;;5.00;99.90;;;;;;5025003;28;20184;-46
2022/11/25 03:08:03;;;;;;;38.77;35.17;;;5.10;99.90;;;;;;5027255;28;20190;-52
2022/11/25 03:10:29;;;;;;;37.70;34.03;;;5.10;99.90;;;;;;5027264;28;20429;-51
2022/11/25 03:12:55;;;;;;;37.67;34.08;;;5.10;99.90;;;;;;5027747;28;20211;-47
2022/11/25 03:15:21;;;;;;;38.67;34.77;;;5.20;99.90;;;;;;5029024;28;20273;-51
2022/11/25 03:17:46;;;;;;;37.25;33.63;;;5.10;99.90;;;;;;5027469;28;20206;-53
2022/11/25 03:20:13;;;;;;;37.43;33.93;;;5.20;99.90;;;;;;5028401;28;20189;-47
2022/11/25 03:22:40;;;;;;;38.13;33.95;;;5.20;99.90;;;;;;5026128;28;20635;-48
2022/11/25 03:25:06;;;;;;;37.50;33.78;;;5.20;99.90;;;;;;5027396;28;20190;-50
2022/11/25 03:27:33;;;;;;;37.07;33.47;;;5.20;99.90;;;;;;5028807;28;20234;-48
2022/11/25 03:29:58;;;;;;;37.97;34.30;;;5.20;99.90;;;;;;5027397;28;20474;-51
2022/11/25 03:32:24;;;;;;;36.37;32.97;;;5.20;99.90;;;;;;5027711;28;20745;-49
2022/11/25 03:34:50;;;;;;;37.20;33.57;;;5.20;99.90;;;;;;5027800;28;20645;-52
2022/11/25 03:37:15;;;;;;;35.97;32.60;;;5.20;99.90;;;;;;5029728;28;20218;-50
2022/11/25 03:39:41;;;;;;;36.97;33.60;;;5.20;99.90;;;;;;5027676;28;20182;-51
2022/11/25 03:42:07;;;;;;;35.97;32.87;;;5.30;99.90;;;;;;5030143;28;20193;-52
2022/11/25 03:44:32;;;;;;;35.63;32.10;;;5.30;99.90;;;;;;5029344;28;20190;-51
2022/11/25 03:46:58;;;;;;;36.50;32.87;;;5.30;99.90;;;;;;5029940;28;20641;-48
2022/11/25 03:49:23;;;;;;;36.90;33.40;;;5.30;99.90;;;;;;5031897;28;20279;-49
2022/11/25 03:51:49;;;;;;;36.40;32.80;;;5.30;99.90;;;;;;5028387;28;20190;-51
2022/11/25 03:54:14;;;;;;;35.90;32.40;;;5.30;99.90;;;;;;5026007;28;20182;-48
2022/11/25 03:56:40;;;;;;;38.50;34.60;;;5.30;99.90;;;;;;5029471;28;20182;-51
2022/11/25 03:59:06;;;;;;;51.75;46.65;;;5.30;99.90;;;;;;5027970;28;20237;-50
2022/11/25 04:01:32;;;;;;;49.97;45.00;;;5.20;99.90;;;;;;5029388;28;20587;-58
2022/11/25 04:03:57;;;;;;;63.50;56.90;;;5.30;99.90;;;;;;5029661;28;20210;-50
2022/11/25 04:06:23;;;;;;;67.87;60.60;;;5.30;99.90;;;;;;5029321;28;20558;-52
2022/11/25 04:08:49;;;;;;;59.40;53.17;;;5.30;99.90;;;;;;5027881;28;20802;-51
2022/11/25 04:11:15;;;;;;;45.35;41.08;;;5.30;99.90;;;;;;5016343;28;20191;-49
2022/11/25 04:13:41;;;;;;;40.90;37.20;;;5.40;99.90;;;;;;5028572;28;20248;-48
2022/11/25 04:16:15;;;;;;;39.17;35.57;;;5.40;99.90;;;;;;5029808;28;20897;-47
2022/11/25 04:18:40;;;;;;;36.17;32.65;;;5.40;99.90;;;;;;5026872;28;20254;-53
2022/11/25 04:21:06;;;;;;;36.53;33.13;;;5.40;99.90;;;;;;5029578;28;20287;-52
2022/11/25 04:23:31;;;;;;;33.57;30.47;;;5.40;99.90;;;;;;5028488;28;20668;-54
2022/11/25 04:25:57;;;;;;;34.00;30.60;;;5.40;99.90;;;;;;5029096;28;20640;-53
2022/11/25 04:28:22;;;;;;;33.80;30.53;;;5.40;99.90;;;;;;5025011;28;20190;-50
2022/11/25 04:30:48;;;;;;;33.50;30.50;;;5.40;99.90;;;;;;5028854;28;20450;-49
2022/11/25 04:33:13;;;;;;;33.37;30.23;;;5.40;99.90;;;;;;5027206;28;20194;-50
2022/11/25 04:35:39;;;;;;;33.50;30.30;;;5.40;99.90;;;;;;5028285;28;20656;-57
2022/11/25 04:38:05;;;;;;;32.50;29.40;;;5.40;99.90;;;;;;5025861;28;20206;-49
2022/11/25 04:40:30;;;;;;;31.97;28.90;;;5.40;99.90;;;;;;5028820;28;20179;-48
2022/11/25 04:42:56;;;;;;;33.10;30.17;;;5.40;99.90;;;;;;5028101;28;20275;-51
2022/11/25 04:45:21;;;;;;;31.33;28.53;;;5.40;99.90;;;;;;5028279;28;20187;-49
2022/11/25 04:47:47;;;;;;;33.07;30.10;;;5.40;99.90;;;;;;5025436;28;20229;-51
2022/11/25 04:50:16;;;;;;;31.60;28.53;;;5.40;99.90;;;;;;5024079;28;20546;-52
2022/11/25 04:52:42;;;;;;;33.38;30.38;;;5.40;99.90;;;;;;5026154;28;20193;-52
2022/11/25 04:55:08;;;;;;;30.70;27.80;;;5.50;99.90;;;;;;5023738;28;20191;-52
2022/11/25 04:57:33;;;;;;;31.67;28.70;;;5.50;99.90;;;;;;5027021;28;20210;-52
2022/11/25 04:59:59;;;;;;;31.57;28.70;;;5.50;99.90;;;;;;5027792;28;20192;-46
2022/11/25 05:02:26;;;;;;;29.90;27.27;;;5.50;99.90;;;;;;5027019;28;20278;-48
2022/11/25 05:04:54;;;;;;;31.80;28.60;;;5.50;99.90;;;;;;5027128;28;20721;-48
2022/11/25 05:07:22;;;;;;;30.08;27.10;;;5.50;99.90;;;;;;5014593;28;20339;-47
2022/11/25 05:09:48;;;;;;;31.08;28.33;;;5.50;99.90;;;;;;5025226;28;20191;-50
2022/11/25 05:12:22;;;;;;;30.17;27.57;;;5.50;99.90;;;;;;5023747;28;20268;-52
2022/11/25 05:14:48;;;;;;;30.45;27.58;;;5.40;99.90;;;;;;5036212;28;20451;-47
2022/11/25 05:17:17;;;;;;;29.13;26.42;;;5.40;99.90;;;;;;5015488;28;20202;-51
2022/11/25 05:19:43;;;;;;;29.73;27.02;;;5.40;99.90;;;;;;5010677;28;20190;-48
2022/11/25 05:22:17;;;;;;;30.40;27.70;;;5.30;99.90;;;;;;5019186;28;20189;-50
2022/11/25 05:24:43;;;;;;;30.10;27.20;;;5.30;99.90;;;;;;5019221;28;20182;-54
2022/11/25 05:27:09;;;;;;;30.43;27.73;;;5.20;99.90;;;;;;5019400;28;20183;-48
2022/11/25 05:29:36;;;;;;;30.98;28.13;;;5.10;99.90;;;;;;5019052;28;20944;-49
2022/11/25 05:32:01;;;;;;;31.35;28.55;;;5.00;99.90;;;;;;5019843;28;20182;-49
2022/11/25 05:34:27;;;;;;;31.43;28.43;;;4.90;99.90;;;;;;5019440;28;20185;-57
2022/11/25 05:36:53;;;;;;;31.20;28.20;;;4.90;99.90;;;;;;5017106;28;20217;-49
2022/11/25 05:39:18;;;;;;;30.47;27.60;;;4.80;99.90;;;;;;5013157;28;20239;-49
2022/11/25 05:41:44;;;;;;;30.00;27.00;;;4.70;99.90;;;;;;5023941;28;20186;-50
2022/11/25 05:44:10;;;;;;;29.80;27.00;;;4.60;99.90;;;;;;5027079;28;20179;-48
2022/11/25 05:46:35;;;;;;;31.90;28.87;;;4.60;99.90;;;;;;5026384;28;20182;-49
2022/11/25 05:49:01;;;;;;;30.93;28.13;;;4.60;99.90;;;;;;5025583;28;20179;-55
2022/11/25 05:51:27;;;;;;;29.60;26.93;;;4.50;99.90;;;;;;5027724;28;20183;-53
2022/11/25 05:53:54;;;;;;;30.80;28.13;;;4.50;99.90;;;;;;5028153;28;20185;-51
2022/11/25 05:56:20;;;;;;;31.13;28.35;;;4.40;99.90;;;;;;5027511;28;20668;-49
2022/11/25 05:58:46;;;;;;;30.60;27.80;;;4.30;99.90;;;;;;5028143;28;20210;-46
2022/11/25 06:01:14;;;;;;;32.17;28.97;;;4.30;99.90;;;;;;5027300;28;20954;-51
2022/11/25 06:03:41;;;;;;;31.67;28.60;;;4.20;99.90;;;;;;5028290;28;20179;-52
2022/11/25 06:06:08;;;;;;;32.50;29.35;;;4.20;99.90;;;;;;5028047;28;20237;-52
2022/11/25 06:08:36;;;;;;;33.45;30.15;;;4.10;99.90;;;;;;5028230;28;20209;-48
2022/11/25 06:11:06;;;;;;;32.92;29.83;;;4.10;99.90;;;;;;5027744;28;20182;-54
2022/11/25 06:13:32;;;;;;;33.00;30.08;;;4.00;99.90;;;;;;5027884;28;20561;-49
2022/11/25 06:15:58;;;;;;;32.93;29.83;;;4.10;99.90;;;;;;5026847;28;20348;-50
2022/11/25 06:18:23;;;;;;;32.10;29.07;;;4.00;99.90;;;;;;5027353;28;20967;-50
2022/11/25 06:20:58;;;;;;;33.30;29.77;;;4.00;99.90;;;;;;5027931;28;20228;-53
2022/11/25 06:23:25;;;;;;;32.13;28.95;;;3.90;99.90;;;;;;5027808;28;20183;-47
2022/11/25 06:25:51;;;;;;;33.88;30.40;;;3.90;99.90;;;;;;5027562;28;20518;-49
2022/11/25 06:28:16;;;;;;;33.25;29.95;;;3.90;99.90;;;;;;5027706;28;20178;-49
2022/11/25 06:30:42;;;;;;;33.50;30.23;;;3.80;99.90;;;;;;5028363;28;20267;-50
2022/11/25 06:33:08;;;;;;;32.37;29.30;;;3.80;99.90;;;;;;5031017;28;20201;-49
2022/11/25 06:35:34;;;;;;;33.90;30.80;;;3.80;99.90;;;;;;5030949;28;20182;-46
2022/11/25 06:38:00;;;;;;;35.08;31.45;;;3.80;99.90;;;;;;5031020;28;20202;-51
2022/11/25 06:40:25;;;;;;;33.00;29.58;;;3.70;99.90;;;;;;5030804;28;20272;-48
2022/11/25 06:42:51;;;;;;;34.03;30.40;;;3.60;99.90;;;;;;5031173;28;20600;-46
2022/11/25 06:45:17;;;;;;;33.90;30.53;;;3.50;99.90;;;;;;5029684;28;20265;-49
2022/11/25 06:47:42;;;;;;;35.17;31.77;;;3.50;99.90;;;;;;5030020;28;20210;-52
2022/11/25 06:50:08;;;;;;;36.10;31.73;;;3.40;99.90;;;;;;5030833;28;20213;-52
2022/11/25 06:52:34;;;;;;;34.47;31.30;;;3.40;99.90;;;;;;5030956;28;20194;-53
2022/11/25 06:55:00;;;;;;;35.53;31.93;;;3.30;99.90;;;;;;5030920;28;20183;-53
2022/11/25 06:57:25;;;;;;;36.20;32.60;;;3.30;99.90;;;;;;5030427;28;21027;-49
2022/11/25 06:59:51;;;;;;;34.33;31.03;;;3.30;99.90;;;;;;5030798;28;20181;-54
2022/11/25 07:02:17;;;;;;;36.73;32.73;;;3.30;99.90;;;;;;5030618;28;20179;-50
2022/11/25 07:04:43;;;;;;;35.47;31.80;;;3.30;99.90;;;;;;5029652;28;20810;-51
2022/11/25 07:07:09;;;;;;;37.10;33.30;;;3.30;99.90;;;;;;5030544;28;20238;-50
2022/11/25 07:09:35;;;;;;;36.13;32.43;;;3.30;99.90;;;;;;5030698;28;20198;-50
2022/11/25 07:12:01;;;;;;;35.30;31.77;;;3.20;99.90;;;;;;5030488;28;20262;-48
2022/11/25 07:14:26;;;;;;;35.93;32.30;;;3.20;99.90;;;;;;5028597;28;20444;-50
2022/11/25 07:16:52;;;;;;;37.63;33.63;;;3.20;99.90;;;;;;5029012;28;20940;-54
2022/11/25 07:19:18;;;;;;;36.13;32.42;;;3.30;99.90;;;;;;5028791;28;20195;-51
2022/11/25 07:21:45;;;;;;;35.50;31.90;;;3.20;99.90;;;;;;5030268;28;20179;-52
2022/11/25 07:24:13;;;;;;;36.25;32.72;;;3.20;99.90;;;;;;5030216;28;20421;-52
2022/11/25 07:26:40;;;;;;;37.15;33.22;;;3.20;99.90;;;;;;5030037;28;20606;-48
2022/11/25 07:29:11;;;;;;;37.63;33.90;;;3.20;99.90;;;;;;5030257;28;20190;-51
2022/11/25 07:31:43;;;;;;;37.90;34.10;;;3.20;99.90;;;;;;5030042;28;20191;-53
2022/11/25 07:34:18;;;;;;;36.65;32.72;;;3.20;99.90;;;;;;5030303;28;20189;-50
2022/11/25 07:36:44;;;;;;;37.60;33.60;;;3.20;99.90;;;;;;5030285;28;20185;-50
2022/11/25 07:39:16;;;;;;;38.38;34.30;;;3.20;99.90;;;;;;5030449;28;20511;-54
2022/11/25 07:41:42;;;;;;;39.95;35.20;;;3.20;99.90;;;;;;5028219;28;20332;-50
2022/11/25 07:44:11;;;;;;;39.08;34.97;;;3.30;99.90;;;;;;5028413;28;20691;-49
2022/11/25 07:46:40;;;;;;;39.17;35.13;;;3.40;99.90;;;;;;5028341;28;20649;-50
2022/11/25 07:49:08;;;;;;;40.67;36.25;;;3.50;99.90;;;;;;5030047;28;20186;-49
2022/11/25 07:51:37;;;;;;;41.53;36.47;;;3.50;99.90;;;;;;5017101;28;20506;-48
2022/11/25 07:54:06;;;;;;;40.72;36.28;;;3.60;99.90;;;;;;5029928;28;20166;-50
2022/11/25 07:56:37;;;;;;;39.95;35.17;;;3.70;99.90;;;;;;5029683;28;20174;-47
2022/11/25 07:59:05;;;;;;;40.88;34.08;;;3.80;99.90;;;;;;5029424;28;20668;-51
2022/11/25 08:01:31;;;;;;;47.10;36.20;;;3.90;99.90;;;;;;5029473;28;20178;-51
2022/11/25 08:03:57;;;;;;;39.47;34.67;;;4.00;99.90;;;;;;5029687;28;20655;-50
2022/11/25 08:06:25;;;;;;;39.73;35.63;;;4.10;99.90;;;;;;5029423;28;20304;-48
2022/11/25 08:08:54;;;;;;;69.65;39.38;;;4.20;99.90;;;;;;5029483;28;20425;-48
2022/11/25 08:11:22;;;;;;;46.75;37.03;;;4.40;99.90;;;;;;5028946;28;20657;-52
2022/11/25 08:13:48;;;;;;;41.08;36.60;;;4.80;99.90;;;;;;5028672;28;20330;-50
2022/11/25 08:16:17;;;;;;;40.20;35.73;;;5.10;99.90;;;;;;5029347;28;20180;-54
2022/11/25 08:18:43;;;;;;;37.38;33.30;;;5.40;99.90;;;;;;5029178;28;20239;-47
2022/11/25 08:21:11;;;;;;;37.30;33.20;;;5.80;99.90;;;;;;5029241;28;20183;-54
2022/11/25 08:23:39;;;;;;;33.70;30.45;;;6.50;99.90;;;;;;5029289;28;20571;-54
2022/11/25 08:26:11;;;;;;;32.40;29.33;;;6.60;99.90;;;;;;5029207;28;20683;-50
2022/11/25 08:28:37;;;;;;;30.40;27.30;;;7.10;99.90;;;;;;5029010;28;20797;-45
2022/11/25 08:31:09;;;;;;;28.90;26.30;;;7.40;99.90;;;;;;5029107;28;20417;-54
2022/11/25 08:33:35;;;;;;;27.70;25.10;;;7.70;99.90;;;;;;5029121;28;20457;-52
2022/11/25 08:36:00;;;;;;;26.67;24.27;;;7.30;99.90;;;;;;5029435;28;20425;-50
2022/11/25 08:38:27;;;;;;;27.07;24.63;;;7.40;99.90;;;;;;5029205;28;20202;-52
2022/11/25 08:40:53;;;;;;;24.70;22.57;;;8.00;99.90;;;;;;5028304;28;20183;-56
2022/11/25 08:43:20;;;;;;;25.50;23.00;;;8.40;99.90;;;;;;5015598;28;20424;-55
2022/11/25 08:45:49;;;;;;;24.73;22.47;;;8.70;99.90;;;;;;5028786;28;20417;-54
2022/11/25 08:48:17;;;;;;;24.27;22.17;;;8.70;99.90;;;;;;5028862;28;20420;-54
2022/11/25 08:50:49;;;;;;;23.57;21.50;;;8.50;99.90;;;;;;5028440;28;20432;-53
2022/11/25 08:53:15;;;;;;;24.77;22.50;;;8.50;99.90;;;;;;5028340;28;20425;-49
2022/11/25 08:55:41;;;;;;;25.90;23.60;;;8.60;99.90;;;;;;5028701;28;20424;-54
2022/11/25 08:58:09;;;;;;;25.60;23.30;;;8.60;99.90;;;;;;5028390;28;20497;-54
2022/11/25 09:00:36;;;;;;;24.60;22.40;;;8.80;99.90;;;;;;5028553;28;21031;-53
2022/11/25 09:03:02;;;;;;;23.27;21.37;;;9.20;99.90;;;;;;5028745;28;20486;-53
2022/11/25 09:05:34;;;;;;;24.43;22.30;;;9.40;99.90;;;;;;5027201;28;20915;-53
2022/11/25 09:08:04;;;;;;;24.47;22.47;;;9.50;99.90;;;;;;5028712;28;20497;-47
2022/11/25 09:10:30;;;;;;;23.70;21.60;;;9.30;99.90;;;;;;5028396;28;20417;-53
2022/11/25 09:12:56;;;;;;;23.77;21.67;;;9.50;99.90;;;;;;5028605;28;20418;-49
2022/11/25 09:15:22;;;;;;;22.97;20.97;;;9.70;99.90;;;;;;5028438;28;20432;-49
2022/11/25 09:17:47;;;;;;;22.77;20.77;;;10.10;99.90;;;;;;5028266;28;20676;-59
2022/11/25 09:20:13;;;;;;;23.67;21.63;;;10.70;99.90;;;;;;5028670;28;20521;-49
2022/11/25 09:22:39;;;;;;;22.97;20.97;;;10.90;99.90;;;;;;5028476;28;20183;-52
2022/11/25 09:25:05;;;;;;;21.83;19.93;;;11.30;99.90;;;;;;5028298;28;20174;-51
2022/11/25 09:27:31;;;;;;;23.70;21.40;;;11.90;99.90;;;;;;5028647;28;20676;-54
2022/11/25 09:29:56;;;;;;;22.30;20.60;;;11.90;99.90;;;;;;5028172;28;20448;-51
2022/11/25 09:32:22;;;;;;;23.17;21.27;;;11.50;99.90;;;;;;5028298;28;20418;-50
2022/11/25 09:34:48;;;;;;;21.97;20.17;;;11.30;99.90;;;;;;5027834;28;20719;-55
2022/11/25 09:37:14;;;;;;;23.50;21.60;;;11.10;99.90;;;;;;5028230;28;20202;-54
2022/11/25 09:39:39;;;;;;;24.73;22.63;;;10.60;99.90;;;;;;5028110;28;20175;-54
2022/11/25 09:48:02;;;;;;;23.90;21.70;;;11.30;99.90;;;;;;5027461;28;21019;-55
2022/11/25 09:50:47;;;;;;;25.47;23.27;;;11.30;99.90;;;;;;5028079;28;20438;-56
2022/11/25 09:53:37;;;;;;;23.90;21.90;;;11.50;99.90;;;;;;5028283;28;20409;-56
2022/11/25 09:56:21;;;;;;;23.40;21.60;;;12.00;99.90;;;;;;5028311;28;20412;-53
2022/11/25 09:58:55;;;;;;;22.40;20.70;;;12.20;99.90;;;;;;5028192;28;20515;-55
2022/11/25 10:01:25;;;;;;;22.27;20.60;;;12.90;99.90;;;;;;5027897;28;20930;-54
2022/11/25 10:04:12;;;;;;;22.07;20.27;;;13.20;99.90;;;;;;5028076;28;20903;-54
2022/11/25 10:07:10;;;;;;;21.73;19.90;;;13.40;98.80;;;;;;5030184;28;20802;-52
2022/11/25 10:09:36;;;;;;;20.97;19.27;;;13.30;99.90;;;;;;5031562;28;20440;-56
2022/11/25 10:12:16;;;;;;;20.93;19.23;;;13.60;96.50;;;;;;5031758;28;20420;-55
2022/11/25 10:14:48;;;;;;;20.60;19.00;;;13.70;96.40;;;;;;5031815;28;20973;-48
2022/11/25 10:17:32;;;;;;;21.10;19.30;;;14.10;95.80;;;;;;5030875;28;20492;-52
2022/11/25 10:20:19;;;;;;;21.07;19.37;;;14.30;93.90;;;;;;5030856;28;20463;-53
2022/11/25 10:22:48;;;;;;;20.47;18.77;;;14.30;94.30;;;;;;5031627;28;20801;-53
2022/11/25 10:25:44;;;;;;;20.00;18.67;;;15.10;93.50;;;;;;5031355;28;20421;-56
2022/11/25 10:28:23;;;;;;;20.20;18.70;;;15.30;91.50;;;;;;5031104;28;21022;-53
2022/11/25 10:31:12;;;;;;;19.27;17.87;;;14.90;89.40;;;;;;5031159;28;21160;-55
2022/11/25 10:33:40;;;;;;;19.00;17.60;;;14.70;89.20;;;;;;5031271;28;20421;-52
2022/11/25 10:36:22;;;;;;;18.93;17.40;;;14.90;91.20;;;;;;5031194;28;20423;-52
2022/11/25 10:39:01;;;;;;;20.30;18.83;;;14.90;88.10;;;;;;5031151;28;20464;-55
2022/11/25 10:41:33;;;;;;;19.27;17.87;;;15.30;88.40;;;;;;5031246;28;20499;-52
2022/11/25 10:43:59;;;;;;;19.80;18.40;;;15.80;86.90;;;;;;5031466;28;20876;-55
2022/11/25 10:46:45;;;;;;;20.00;18.43;;;15.60;83.40;;;;;;5031114;28;20456;-53
2022/11/25 10:49:24;;;;;;;19.37;18.03;;;15.50;84.20;;;;;;5017620;28;20276;-50
2022/11/25 10:51:50;;;;;;;20.30;18.80;;;15.60;85.40;;;;;;5031251;28;20421;-51
2022/11/25 10:54:24;;;;;;;19.30;17.80;;;15.50;85.10;;;;;;5030379;28;20417;-56
2022/11/25 10:56:58;;;;;;;19.40;17.90;;;16.00;83.90;;;;;;5022573;28;20177;-56
2022/11/25 10:59:32;;;;;;;18.33;16.93;;;16.00;84.50;;;;;;5031090;28;20500;-54
2022/11/25 11:02:18;;;;;;;20.23;18.63;;;16.40;82.20;;;;;;5030787;28;20784;-57
2022/11/25 11:04:54;;;;;;;19.60;18.07;;;16.20;80.40;;;;;;5030629;28;20417;-58
2022/11/25 11:07:21;;;;;;;19.77;18.27;;;17.10;78.70;;;;;;5030621;28;20498;-54
2022/11/25 11:09:48;;;;;;;18.97;17.47;;;17.40;76.60;;;;;;5030790;28;20758;-53
2022/11/25 11:12:23;;;;;;;19.50;18.10;;;16.70;73.00;;;;;;5030787;28;20420;-53
2022/11/25 11:14:50;;;;;;;18.10;16.80;;;16.40;76.50;;;;;;5031165;28;20423;-52
2022/11/25 11:17:35;;;;;;;19.30;17.90;;;16.10;76.60;;;;;;5030348;28;21045;-54
2022/11/25 11:20:18;;;;;;;20.17;18.73;;;15.60;80.30;;;;;;5025570;28;20463;-55
2022/11/25 11:23:08;;;;;;;19.53;18.13;;;15.40;82.30;;;;;;5029893;28;20401;-54
2022/11/25 11:25:36;;;;;;;18.70;17.37;;;15.50;82.00;;;;;;5018282;28;20970;-57
2022/11/25 11:28:02;;;;;;;18.70;17.40;;;16.20;80.40;;;;;;5030303;28;20848;-55
2022/11/25 11:30:31;;;;;;;18.83;17.50;;;16.40;78.10;;;;;;5030267;28;20421;-56
2022/11/25 11:33:24;;;;;;;18.23;16.87;;;16.50;77.90;;;;;;5030264;28;20419;-54
2022/11/25 11:35:51;;;;;;;18.47;17.27;;;16.50;75.90;;;;;;5030266;28;20421;-55
2022/11/25 11:38:34;;;;;;;17.50;16.30;;;16.70;77.40;;;;;;5029837;28;20558;-54
2022/11/25 11:41:27;;;;;;;19.17;17.97;;;17.00;76.50;;;;;;5030252;28;20577;-55
2022/11/25 11:44:32;;;;;;;18.47;17.07;;;16.90;73.40;;;;;;5030128;28;20421;-54
2022/11/25 11:47:21;;;;;;;17.70;16.50;;;17.30;72.70;;;;;;5028923;28;20459;-56
2022/11/25 11:50:01;;;;;;;17.93;16.63;;;17.20;71.70;;;;;;5030241;28;20409;-59
2022/11/25 11:52:43;;;;;;;17.90;16.70;;;17.20;71.80;;;;;;5029919;28;20402;-50
2022/11/25 11:55:29;;;;;;;18.10;16.83;;;17.20;69.10;;;;;;5027419;28;20568;-54
2022/11/25 11:58:24;;;;;;;18.87;17.67;;;16.20;71.40;;;;;;5023260;28;20466;-52
2022/11/25 12:01:09;;;;;;;18.50;17.30;;;16.00;77.00;;;;;;5029154;28;20915;-53
2022/11/25 12:03:46;;;;;;;19.07;17.70;;;15.50;76.90;;;;;;5029755;28;20434;-51
2022/11/25 12:06:14;;;;;;;17.77;16.37;;;16.00;80.40;;;;;;5029564;28;20471;-51
2022/11/25 12:08:51;;;;;;;17.73;16.53;;;16.50;77.10;;;;;;5029589;28;20445;-51
2022/11/25 12:11:21;;;;;;;18.30;17.03;;;15.60;74.20;;;;;;5029067;28;20483;-49
2022/11/25 12:14:01;;;;;;;18.30;16.93;;;14.80;81.00;;;;;;5029278;28;20439;-50
2022/11/25 12:16:44;;;;;;;18.33;17.10;;;14.00;87.70;;;;;;5028396;28;20436;-53
2022/11/25 12:19:36;;;;;;;17.53;16.33;;;13.00;92.10;;;;;;5024631;28;20465;-49
2022/11/25 12:22:18;;;;;;;18.57;17.17;;;12.70;97.80;;;;;;5028032;28;20435;-57
2022/11/25 12:24:55;;;;;;;18.77;17.27;;;12.80;98.60;;;;;;5029246;28;20504;-50
2022/11/25 12:27:33;;;;;;;18.87;17.43;;;12.90;98.10;;;;;;5016173;28;20793;-57
2022/11/25 12:30:16;;;;;;;20.40;18.70;;;12.70;98.90;;;;;;5028533;28;20417;-56
2022/11/25 12:33:09;;;;;;;20.37;18.77;;;12.30;99.70;;;;;;5028055;28;21014;-57
2022/11/25 12:36:15;;;;;;;18.87;17.47;;;11.40;99.90;;;;;;5016628;28;20930;-54
2022/11/25 12:38:54;;;;;;;19.60;18.10;;;11.60;99.90;;;;;;5026254;28;20468;-53
2022/11/25 12:41:41;;;;;;;19.73;18.23;;;11.60;99.90;;;;;;5028787;28;20436;-52
2022/11/25 12:44:25;;;;;;;20.23;18.50;;;11.40;99.90;;;;;;5029077;28;20466;-50
2022/11/25 12:46:53;;;;;;;20.80;19.00;;;11.40;99.90;;;;;;5029615;28;20413;-57
2022/11/25 12:49:20;;;;;;;20.37;18.67;;;11.40;99.90;;;;;;5028867;28;20971;-56
2022/11/25 12:52:17;;;;;;;20.00;18.50;;;11.40;99.90;;;;;;5029468;28;20422;-57
2022/11/25 12:54:51;;;;;;;20.87;19.27;;;11.50;99.90;;;;;;5028856;28;20496;-56
2022/11/25 12:57:56;;;;;;;19.73;18.23;;;11.70;99.90;;;;;;5025091;28;21067;-56
2022/11/25 13:00:24;;;;;;;18.70;17.23;;;11.70;99.90;;;;;;5022494;28;20430;-56